sensor_id;sensor_type;location;lat;lon;timestamp;P1;durP1;ratioP1;P2;durP2;ratioP2
44516;SDS011;30223;17.182;-96.766;2022-11-30T00:00:38;4.63;;;3.28;;
44516;SDS011;30223;17.182;-96.766;2022-11-30T00:03:05;5.70;;;3.70;;
44516;SDS011;30223;17.182;-96.766;2022-11-30T00:05:32;10.02;;;4.05;;
44516;SDS011;30223;17.182;-96.766;2022-11-30T00:08:02;7.90;;;4.22;;
44516;SDS011;30223;17.182;-96.766;2022-11-30T00:10:28;11.45;;;6.03;;
44516;SDS011;30223;17.182;-96.766;2022-11-30T00:12:55;8.63;;;5.53;;
44516;SDS011;30223;17.182;-96.766;2022-11-30T00:15:21;9.45;;;6.50;;
44516;SDS011;30223;17.182;-96.766;2022-11-30T00:17:48;8.00;;;4.90;;
44516;SDS011;30223;17.182;-96.766;2022-11-30T00:20:20;7.88;;;4.95;;
44516;SDS011;30223;17.182;-96.766;2022-11-30T00:22:47;10.50;;;6.55;;
44516;SDS011;30223;17.182;-96.766;2022-11-30T00:25:13;9.60;;;5.38;;
44516;SDS011;30223;17.182;-96.766;2022-11-30T00:27:40;8.05;;;4.45;;
44516;SDS011;30223;17.182;-96.766;2022-11-30T00:32:35;9.00;;;4.90;;
44516;SDS011;30223;17.182;-96.766;2022-11-30T00:35:02;8.63;;;4.90;;
44516;SDS011;30223;17.182;-96.766;2022-11-30T00:37:29;12.60;;;5.60;;
44516;SDS011;30223;17.182;-96.766;2022-11-30T00:39:55;7.75;;;4.72;;
44516;SDS011;30223;17.182;-96.766;2022-11-30T00:42:22;10.00;;;4.72;;
44516;SDS011;30223;17.182;-96.766;2022-11-30T00:44:48;11.15;;;4.72;;
44516;SDS011;30223;17.182;-96.766;2022-11-30T00:47:15;9.27;;;5.97;;
44516;SDS011;30223;17.182;-96.766;2022-11-30T00:49:42;13.68;;;6.38;;
44516;SDS011;30223;17.182;-96.766;2022-11-30T00:52:08;8.98;;;5.38;;
44516;SDS011;30223;17.182;-96.766;2022-11-30T00:54:35;9.27;;;5.22;;
44516;SDS011;30223;17.182;-96.766;2022-11-30T00:57:01;9.80;;;5.68;;
44516;SDS011;30223;17.182;-96.766;2022-11-30T00:59:28;8.88;;;5.85;;
44516;SDS011;30223;17.182;-96.766;2022-11-30T01:01:54;12.27;;;5.60;;
44516;SDS011;30223;17.182;-96.766;2022-11-30T01:04:21;11.73;;;5.97;;
44516;SDS011;30223;17.182;-96.766;2022-11-30T01:06:48;8.20;;;5.20;;
44516;SDS011;30223;17.182;-96.766;2022-11-30T01:09:14;8.80;;;6.22;;
44516;SDS011;30223;17.182;-96.766;2022-11-30T01:11:41;8.07;;;5.75;;
44516;SDS011;30223;17.182;-96.766;2022-11-30T01:14:07;8.07;;;5.72;;
44516;SDS011;30223;17.182;-96.766;2022-11-30T01:16:34;6.57;;;5.45;;
44516;SDS011;30223;17.182;-96.766;2022-11-30T01:19:01;10.43;;;6.25;;
44516;SDS011;30223;17.182;-96.766;2022-11-30T01:21:28;9.68;;;6.07;;
44516;SDS011;30223;17.182;-96.766;2022-11-30T01:23:55;10.63;;;5.55;;
44516;SDS011;30223;17.182;-96.766;2022-11-30T01:26:22;8.93;;;5.60;;
44516;SDS011;30223;17.182;-96.766;2022-11-30T01:28:49;11.45;;;5.50;;
44516;SDS011;30223;17.182;-96.766;2022-11-30T01:31:18;7.20;;;4.72;;
44516;SDS011;30223;17.182;-96.766;2022-11-30T01:33:49;12.85;;;6.38;;
44516;SDS011;30223;17.182;-96.766;2022-11-30T01:36:25;16.05;;;5.82;;
44516;SDS011;30223;17.182;-96.766;2022-11-30T01:38:54;9.10;;;6.13;;
44516;SDS011;30223;17.182;-96.766;2022-11-30T01:41:26;9.25;;;5.97;;
44516;SDS011;30223;17.182;-96.766;2022-11-30T01:43:55;9.15;;;6.30;;
44516;SDS011;30223;17.182;-96.766;2022-11-30T01:46:48;10.57;;;6.45;;
44516;SDS011;30223;17.182;-96.766;2022-11-30T01:49:21;11.27;;;5.57;;
44516;SDS011;30223;17.182;-96.766;2022-11-30T01:52:11;8.80;;;5.70;;
44516;SDS011;30223;17.182;-96.766;2022-11-30T01:54:54;7.43;;;5.78;;
44516;SDS011;30223;17.182;-96.766;2022-11-30T01:57:37;9.85;;;5.68;;
44516;SDS011;30223;17.182;-96.766;2022-11-30T02:00:07;14.55;;;6.82;;
44516;SDS011;30223;17.182;-96.766;2022-11-30T02:02:40;9.15;;;5.63;;
44516;SDS011;30223;17.182;-96.766;2022-11-30T02:05:09;11.95;;;6.55;;
44516;SDS011;30223;17.182;-96.766;2022-11-30T02:07:37;7.63;;;6.47;;
44516;SDS011;30223;17.182;-96.766;2022-11-30T02:10:05;12.10;;;6.35;;
44516;SDS011;30223;17.182;-96.766;2022-11-30T02:12:57;9.02;;;5.60;;
44516;SDS011;30223;17.182;-96.766;2022-11-30T02:18:51;17.83;;;6.75;;
44516;SDS011;30223;17.182;-96.766;2022-11-30T02:32:49;10.05;;;6.40;;
44516;SDS011;30223;17.182;-96.766;2022-11-30T02:35:24;9.50;;;6.95;;
44516;SDS011;30223;17.182;-96.766;2022-11-30T02:37:56;13.55;;;5.65;;
44516;SDS011;30223;17.182;-96.766;2022-11-30T02:40:25;13.52;;;7.32;;
44516;SDS011;30223;17.182;-96.766;2022-11-30T02:42:52;10.38;;;6.28;;
44516;SDS011;30223;17.182;-96.766;2022-11-30T02:45:21;12.37;;;6.17;;
44516;SDS011;30223;17.182;-96.766;2022-11-30T02:48:09;7.20;;;5.68;;
44516;SDS011;30223;17.182;-96.766;2022-11-30T02:50:40;10.98;;;5.53;;
44516;SDS011;30223;17.182;-96.766;2022-11-30T02:53:12;9.25;;;5.75;;
44516;SDS011;30223;17.182;-96.766;2022-11-30T02:55:38;9.18;;;5.38;;
44516;SDS011;30223;17.182;-96.766;2022-11-30T02:58:06;13.07;;;6.32;;
44516;SDS011;30223;17.182;-96.766;2022-11-30T03:00:32;11.13;;;6.43;;
44516;SDS011;30223;17.182;-96.766;2022-11-30T03:02:59;18.83;;;5.78;;
44516;SDS011;30223;17.182;-96.766;2022-11-30T03:05:25;12.00;;;5.63;;
44516;SDS011;30223;17.182;-96.766;2022-11-30T03:07:52;9.90;;;5.43;;
44516;SDS011;30223;17.182;-96.766;2022-11-30T03:10:19;6.05;;;4.35;;
44516;SDS011;30223;17.182;-96.766;2022-11-30T03:12:45;8.57;;;4.80;;
44516;SDS011;30223;17.182;-96.766;2022-11-30T03:15:12;9.40;;;5.15;;
44516;SDS011;30223;17.182;-96.766;2022-11-30T03:17:39;8.70;;;5.88;;
44516;SDS011;30223;17.182;-96.766;2022-11-30T03:20:05;6.88;;;5.15;;
44516;SDS011;30223;17.182;-96.766;2022-11-30T03:22:32;7.50;;;5.45;;
44516;SDS011;30223;17.182;-96.766;2022-11-30T03:24:59;6.38;;;4.82;;
44516;SDS011;30223;17.182;-96.766;2022-11-30T03:27:26;8.88;;;4.35;;
44516;SDS011;30223;17.182;-96.766;2022-11-30T03:29:52;8.20;;;4.30;;
44516;SDS011;30223;17.182;-96.766;2022-11-30T03:32:19;9.65;;;5.50;;
44516;SDS011;30223;17.182;-96.766;2022-11-30T03:34:46;7.97;;;5.00;;
44516;SDS011;30223;17.182;-96.766;2022-11-30T03:37:13;6.80;;;4.35;;
44516;SDS011;30223;17.182;-96.766;2022-11-30T03:39:43;9.80;;;5.50;;
44516;SDS011;30223;17.182;-96.766;2022-11-30T03:42:09;10.27;;;5.60;;
44516;SDS011;30223;17.182;-96.766;2022-11-30T03:44:36;9.18;;;5.38;;
44516;SDS011;30223;17.182;-96.766;2022-11-30T03:47:03;10.35;;;5.82;;
44516;SDS011;30223;17.182;-96.766;2022-11-30T03:49:29;6.63;;;4.85;;
44516;SDS011;30223;17.182;-96.766;2022-11-30T03:51:56;9.10;;;4.63;;
44516;SDS011;30223;17.182;-96.766;2022-11-30T03:54:23;8.75;;;4.28;;
44516;SDS011;30223;17.182;-96.766;2022-11-30T03:56:49;9.52;;;4.72;;
44516;SDS011;30223;17.182;-96.766;2022-11-30T03:59:16;6.97;;;4.82;;
44516;SDS011;30223;17.182;-96.766;2022-11-30T04:01:42;22.92;;;16.50;;
44516;SDS011;30223;17.182;-96.766;2022-11-30T04:04:10;15.60;;;10.27;;
44516;SDS011;30223;17.182;-96.766;2022-11-30T04:06:36;11.50;;;7.20;;
44516;SDS011;30223;17.182;-96.766;2022-11-30T04:09:05;11.10;;;7.50;;
44516;SDS011;30223;17.182;-96.766;2022-11-30T04:11:31;10.55;;;5.72;;
44516;SDS011;30223;17.182;-96.766;2022-11-30T04:13:58;7.70;;;5.82;;
44516;SDS011;30223;17.182;-96.766;2022-11-30T04:16:25;8.50;;;5.07;;
44516;SDS011;30223;17.182;-96.766;2022-11-30T04:18:52;6.70;;;4.38;;
44516;SDS011;30223;17.182;-96.766;2022-11-30T04:21:18;6.05;;;3.90;;
44516;SDS011;30223;17.182;-96.766;2022-11-30T04:23:45;8.27;;;4.60;;
44516;SDS011;30223;17.182;-96.766;2022-11-30T04:26:12;8.88;;;4.47;;
44516;SDS011;30223;17.182;-96.766;2022-11-30T04:28:40;13.85;;;5.97;;
44516;SDS011;30223;17.182;-96.766;2022-11-30T04:31:08;6.45;;;4.55;;
44516;SDS011;30223;17.182;-96.766;2022-11-30T04:33:35;7.40;;;5.25;;
44516;SDS011;30223;17.182;-96.766;2022-11-30T04:36:02;5.55;;;4.00;;
44516;SDS011;30223;17.182;-96.766;2022-11-30T04:38:31;5.57;;;4.47;;
44516;SDS011;30223;17.182;-96.766;2022-11-30T04:40:58;8.50;;;4.63;;
44516;SDS011;30223;17.182;-96.766;2022-11-30T04:43:24;5.72;;;4.63;;
44516;SDS011;30223;17.182;-96.766;2022-11-30T04:45:51;8.23;;;4.60;;
44516;SDS011;30223;17.182;-96.766;2022-11-30T04:48:18;6.20;;;3.60;;
44516;SDS011;30223;17.182;-96.766;2022-11-30T04:50:45;10.75;;;4.13;;
44516;SDS011;30223;17.182;-96.766;2022-11-30T04:53:11;6.95;;;4.60;;
44516;SDS011;30223;17.182;-96.766;2022-11-30T04:55:38;5.72;;;4.28;;
44516;SDS011;30223;17.182;-96.766;2022-11-30T04:58:05;6.45;;;4.35;;
44516;SDS011;30223;17.182;-96.766;2022-11-30T05:00:32;6.88;;;4.15;;
44516;SDS011;30223;17.182;-96.766;2022-11-30T05:02:59;8.02;;;4.78;;
44516;SDS011;30223;17.182;-96.766;2022-11-30T05:05:25;8.98;;;4.47;;
44516;SDS011;30223;17.182;-96.766;2022-11-30T05:07:56;7.35;;;3.97;;
44516;SDS011;30223;17.182;-96.766;2022-11-30T05:10:24;6.40;;;4.25;;
44516;SDS011;30223;17.182;-96.766;2022-11-30T05:12:51;6.65;;;3.70;;
44516;SDS011;30223;17.182;-96.766;2022-11-30T05:15:18;6.47;;;3.92;;
44516;SDS011;30223;17.182;-96.766;2022-11-30T05:17:45;7.38;;;4.15;;
44516;SDS011;30223;17.182;-96.766;2022-11-30T05:20:12;5.93;;;3.60;;
44516;SDS011;30223;17.182;-96.766;2022-11-30T05:22:38;4.57;;;3.38;;
44516;SDS011;30223;17.182;-96.766;2022-11-30T05:25:05;7.00;;;3.97;;
44516;SDS011;30223;17.182;-96.766;2022-11-30T05:27:32;7.22;;;4.68;;
44516;SDS011;30223;17.182;-96.766;2022-11-30T05:29:59;5.97;;;4.00;;
44516;SDS011;30223;17.182;-96.766;2022-11-30T05:32:26;8.10;;;3.53;;
44516;SDS011;30223;17.182;-96.766;2022-11-30T05:34:53;10.82;;;5.20;;
44516;SDS011;30223;17.182;-96.766;2022-11-30T05:37:19;5.20;;;3.60;;
44516;SDS011;30223;17.182;-96.766;2022-11-30T05:39:46;7.70;;;6.35;;
44516;SDS011;30223;17.182;-96.766;2022-11-30T05:42:13;5.40;;;4.22;;
44516;SDS011;30223;17.182;-96.766;2022-11-30T05:44:39;8.45;;;5.05;;
44516;SDS011;30223;17.182;-96.766;2022-11-30T05:47:06;6.00;;;3.65;;
44516;SDS011;30223;17.182;-96.766;2022-11-30T05:49:32;7.40;;;3.92;;
44516;SDS011;30223;17.182;-96.766;2022-11-30T05:51:59;7.18;;;3.95;;
44516;SDS011;30223;17.182;-96.766;2022-11-30T05:54:25;6.97;;;4.05;;
44516;SDS011;30223;17.182;-96.766;2022-11-30T05:56:52;4.45;;;4.05;;
44516;SDS011;30223;17.182;-96.766;2022-11-30T05:59:19;4.45;;;3.65;;
44516;SDS011;30223;17.182;-96.766;2022-11-30T06:01:45;4.43;;;3.15;;
44516;SDS011;30223;17.182;-96.766;2022-11-30T06:04:12;4.68;;;3.67;;
44516;SDS011;30223;17.182;-96.766;2022-11-30T06:06:39;7.75;;;4.00;;
44516;SDS011;30223;17.182;-96.766;2022-11-30T06:09:05;6.32;;;3.80;;
44516;SDS011;30223;17.182;-96.766;2022-11-30T06:11:32;7.28;;;4.32;;
44516;SDS011;30223;17.182;-96.766;2022-11-30T06:13:58;5.30;;;3.45;;
44516;SDS011;30223;17.182;-96.766;2022-11-30T06:16:25;5.25;;;3.55;;
44516;SDS011;30223;17.182;-96.766;2022-11-30T06:18:52;5.53;;;3.40;;
44516;SDS011;30223;17.182;-96.766;2022-11-30T06:21:18;5.15;;;3.05;;
44516;SDS011;30223;17.182;-96.766;2022-11-30T06:23:45;5.68;;;3.88;;
44516;SDS011;30223;17.182;-96.766;2022-11-30T06:26:12;6.10;;;4.05;;
44516;SDS011;30223;17.182;-96.766;2022-11-30T06:28:39;6.63;;;4.47;;
44516;SDS011;30223;17.182;-96.766;2022-11-30T06:31:06;5.30;;;3.40;;
44516;SDS011;30223;17.182;-96.766;2022-11-30T06:33:33;5.03;;;3.42;;
44516;SDS011;30223;17.182;-96.766;2022-11-30T06:36:00;7.72;;;3.63;;
44516;SDS011;30223;17.182;-96.766;2022-11-30T06:38:26;4.97;;;3.47;;
44516;SDS011;30223;17.182;-96.766;2022-11-30T06:40:53;5.35;;;3.28;;
44516;SDS011;30223;17.182;-96.766;2022-11-30T06:43:20;6.13;;;3.85;;
44516;SDS011;30223;17.182;-96.766;2022-11-30T06:45:46;8.05;;;4.38;;
44516;SDS011;30223;17.182;-96.766;2022-11-30T06:48:13;4.20;;;3.33;;
44516;SDS011;30223;17.182;-96.766;2022-11-30T06:50:40;6.50;;;3.72;;
44516;SDS011;30223;17.182;-96.766;2022-11-30T06:53:06;5.90;;;4.03;;
44516;SDS011;30223;17.182;-96.766;2022-11-30T06:55:33;6.70;;;4.07;;
44516;SDS011;30223;17.182;-96.766;2022-11-30T06:58:05;6.65;;;3.60;;
44516;SDS011;30223;17.182;-96.766;2022-11-30T07:00:35;8.07;;;3.63;;
44516;SDS011;30223;17.182;-96.766;2022-11-30T07:03:03;4.05;;;3.28;;
44516;SDS011;30223;17.182;-96.766;2022-11-30T07:05:33;5.00;;;3.47;;
44516;SDS011;30223;17.182;-96.766;2022-11-30T07:08:05;6.13;;;3.72;;
44516;SDS011;30223;17.182;-96.766;2022-11-30T07:10:31;6.78;;;2.90;;
44516;SDS011;30223;17.182;-96.766;2022-11-30T07:12:58;5.43;;;3.55;;
44516;SDS011;30223;17.182;-96.766;2022-11-30T07:15:24;3.90;;;3.33;;
44516;SDS011;30223;17.182;-96.766;2022-11-30T07:17:51;5.47;;;3.17;;
44516;SDS011;30223;17.182;-96.766;2022-11-30T07:20:18;5.63;;;3.67;;
44516;SDS011;30223;17.182;-96.766;2022-11-30T07:22:44;5.07;;;3.67;;
44516;SDS011;30223;17.182;-96.766;2022-11-30T07:25:11;5.88;;;3.97;;
44516;SDS011;30223;17.182;-96.766;2022-11-30T07:27:56;5.05;;;3.05;;
44516;SDS011;30223;17.182;-96.766;2022-11-30T07:30:22;4.68;;;3.53;;
44516;SDS011;30223;17.182;-96.766;2022-11-30T07:32:49;5.30;;;2.92;;
44516;SDS011;30223;17.182;-96.766;2022-11-30T07:35:15;5.32;;;3.80;;
44516;SDS011;30223;17.182;-96.766;2022-11-30T07:37:42;3.60;;;2.88;;
44516;SDS011;30223;17.182;-96.766;2022-11-30T07:40:08;6.63;;;3.20;;
44516;SDS011;30223;17.182;-96.766;2022-11-30T07:42:35;4.20;;;3.47;;
44516;SDS011;30223;17.182;-96.766;2022-11-30T07:45:02;5.65;;;3.40;;
44516;SDS011;30223;17.182;-96.766;2022-11-30T07:47:29;5.05;;;3.25;;
44516;SDS011;30223;17.182;-96.766;2022-11-30T07:49:55;6.15;;;3.45;;
44516;SDS011;30223;17.182;-96.766;2022-11-30T07:52:22;4.65;;;2.65;;
44516;SDS011;30223;17.182;-96.766;2022-11-30T07:54:49;3.58;;;2.78;;
44516;SDS011;30223;17.182;-96.766;2022-11-30T07:57:15;4.30;;;3.47;;
44516;SDS011;30223;17.182;-96.766;2022-11-30T07:59:42;4.28;;;3.28;;
44516;SDS011;30223;17.182;-96.766;2022-11-30T08:02:09;5.10;;;3.67;;
44516;SDS011;30223;17.182;-96.766;2022-11-30T08:04:35;5.68;;;3.05;;
44516;SDS011;30223;17.182;-96.766;2022-11-30T08:07:02;6.03;;;3.25;;
44516;SDS011;30223;17.182;-96.766;2022-11-30T08:09:28;3.85;;;3.17;;
44516;SDS011;30223;17.182;-96.766;2022-11-30T08:11:55;5.22;;;3.72;;
44516;SDS011;30223;17.182;-96.766;2022-11-30T08:14:22;3.53;;;3.22;;
44516;SDS011;30223;17.182;-96.766;2022-11-30T08:16:48;3.97;;;2.38;;
44516;SDS011;30223;17.182;-96.766;2022-11-30T08:19:16;5.65;;;3.70;;
44516;SDS011;30223;17.182;-96.766;2022-11-30T08:21:42;4.45;;;2.60;;
44516;SDS011;30223;17.182;-96.766;2022-11-30T08:24:10;4.50;;;2.95;;
44516;SDS011;30223;17.182;-96.766;2022-11-30T08:26:39;5.32;;;3.40;;
44516;SDS011;30223;17.182;-96.766;2022-11-30T08:29:07;5.22;;;3.53;;
44516;SDS011;30223;17.182;-96.766;2022-11-30T08:31:37;6.43;;;3.20;;
44516;SDS011;30223;17.182;-96.766;2022-11-30T08:34:05;4.00;;;2.60;;
44516;SDS011;30223;17.182;-96.766;2022-11-30T08:36:35;3.80;;;2.42;;
44516;SDS011;30223;17.182;-96.766;2022-11-30T08:39:03;4.20;;;3.00;;
44516;SDS011;30223;17.182;-96.766;2022-11-30T08:41:31;7.43;;;3.37;;
44516;SDS011;30223;17.182;-96.766;2022-11-30T08:43:59;3.70;;;2.97;;
44516;SDS011;30223;17.182;-96.766;2022-11-30T08:46:26;5.50;;;3.20;;
44516;SDS011;30223;17.182;-96.766;2022-11-30T08:48:53;4.47;;;2.72;;
44516;SDS011;30223;17.182;-96.766;2022-11-30T08:51:20;3.45;;;2.60;;
44516;SDS011;30223;17.182;-96.766;2022-11-30T08:53:47;3.72;;;3.13;;
44516;SDS011;30223;17.182;-96.766;2022-11-30T08:56:18;4.65;;;2.88;;
44516;SDS011;30223;17.182;-96.766;2022-11-30T08:58:48;7.18;;;3.58;;
44516;SDS011;30223;17.182;-96.766;2022-11-30T09:01:18;4.10;;;3.13;;
44516;SDS011;30223;17.182;-96.766;2022-11-30T09:03:47;3.78;;;3.03;;
44516;SDS011;30223;17.182;-96.766;2022-11-30T09:08:44;5.05;;;2.55;;
44516;SDS011;30223;17.182;-96.766;2022-11-30T09:11:13;4.80;;;3.15;;
44516;SDS011;30223;17.182;-96.766;2022-11-30T09:13:47;4.32;;;3.50;;
44516;SDS011;30223;17.182;-96.766;2022-11-30T09:16:15;7.55;;;3.00;;
44516;SDS011;30223;17.182;-96.766;2022-11-30T09:18:43;3.88;;;2.60;;
44516;SDS011;30223;17.182;-96.766;2022-11-30T09:21:12;3.80;;;3.30;;
